TimeMDT,TemperatureF,Dew PointF,Humidity,Sea Level PressureIn,VisibilityMPH,Wind Direction,Wind SpeedMPH,Gust SpeedMPH,PrecipitationIn,Events,Conditions,WindDirDegrees,DateUTC
12:53 AM,55.9,21.9,27,29.85,10.0,NW,5.8,-,N/A,,Clear,310,2013-04-28 06:53:00
1:53 AM,54.0,23.0,30,29.83,10.0,WNW,6.9,-,N/A,,Clear,300,2013-04-28 07:53:00
2:53 AM,54.0,24.1,31,29.82,10.0,West,8.1,-,N/A,,Clear,260,2013-04-28 08:53:00
3:53 AM,52.0,24.1,34,29.82,10.0,West,6.9,-,N/A,,Clear,260,2013-04-28 09:53:00
4:53 AM,48.9,24.1,38,29.83,10.0,NW,9.2,-,N/A,,Clear,310,2013-04-28 10:53:00
5:53 AM,51.1,21.0,31,29.83,10.0,WNW,11.5,-,N/A,,Clear,300,2013-04-28 11:53:00
6:53 AM,51.8,19.4,28,29.99,10.0,NW,13.8,-,N/A,,Clear,310,2013-04-28 12:53:00
7:53 AM,54.0,19.9,26,29.85,10.0,NW,12.7,-,N/A,,Clear,310,2013-04-28 13:53:00
8:53 AM,57.9,19.0,22,29.84,10.0,WNW,11.5,-,N/A,,Clear,300,2013-04-28 14:53:00
9:53 AM,63.0,19.9,19,29.82,10.0,West,5.8,-,N/A,,Clear,280,2013-04-28 15:53:00
10:53 AM,66.0,18.0,16,29.79,10.0,South,8.1,-,N/A,,Clear,170,2013-04-28 16:53:00
11:53 AM,66.0,17.1,15,29.79,10.0,SE,8.1,-,N/A,,Clear,130,2013-04-28 17:53:00
12:53 PM,68.0,18.0,15,29.77,10.0,Variable,3.5,-,N/A,,Clear,0,2013-04-28 18:53:00
1:53 PM,68.0,18.0,15,29.77,10.0,North,3.5,-,N/A,,Overcast,10,2013-04-28 19:53:00
2:53 PM,64.9,23.0,20,29.77,10.0,North,13.8,-,N/A,,Overcast,350,2013-04-28 20:53:00
3:53 PM,64.9,21.0,19,29.77,10.0,North,6.9,-,N/A,,Overcast,360,2013-04-28 21:53:00
4:53 PM,64.9,25.0,22,29.78,10.0,WNW,9.2,-,N/A,,Overcast,300,2013-04-28 22:53:00
5:53 PM,63.0,26.1,25,29.78,10.0,WNW,4.6,-,N/A,,Overcast,300,2013-04-28 23:53:00
6:53 PM,62.1,27.0,26,29.78,10.0,North,6.9,-,N/A,,Overcast,350,2013-04-29 00:53:00
7:53 PM,59.0,30.9,35,29.78,10.0,NNE,6.9,-,N/A,,Overcast,30,2013-04-29 01:53:00
8:53 PM,55.0,30.9,40,29.79,10.0,North,4.6,-,N/A,,Overcast,10,2013-04-29 02:53:00
9:53 PM,50.0,30.0,46,29.80,10.0,Calm,Calm,-,N/A,,Scattered Clouds,0,2013-04-29 03:53:00
10:53 PM,48.0,28.9,48,29.79,10.0,NW,5.8,-,N/A,,Mostly Cloudy,310,2013-04-29 04:53:00
11:53 PM,48.9,28.0,44,29.76,10.0,NE,3.5,-,N/A,,Clear,40,2013-04-29 05:53:00